Time;durP1;ratioP1;P1;durP2;ratioP2;P2;SDS_P1;SDS_P2;PMS_P1;PMS_P2;Temp;Humidity;BMP_temperature;BMP_pressure;BME280_temperature;BME280_humidity;BME280_pressure;Samples;Min_cycle;Max_cycle;Signal;HPM_P1;HPM_P2
2023/04/04 00:00:10;;;;;;;15.30;7.10;;;;;;;0.20;100.00;99598.64;109659;1251;64084;-79
2023/04/04 00:02:56;;;;;;;10.60;6.80;;;;;;;0.22;100.00;99597.93;109375;1249;59064;-79
2023/04/04 00:05:23;;;;;;;15.80;7.20;;;;;;;0.21;100.00;99598.99;109716;1251;59098;-78
2023/04/04 00:07:49;;;;;;;12.40;7.70;;;;;;;0.21;100.00;99595.85;109727;1251;66066;-79
2023/04/04 00:10:16;;;;;;;14.30;7.10;;;;;;;0.19;100.00;99594.48;109741;1251;60197;-80
2023/04/04 00:12:43;;;;;;;15.80;7.50;;;;;;;0.17;100.00;99592.59;109678;1250;64065;-78
2023/04/04 00:15:10;;;;;;;12.90;7.30;;;;;;;0.15;100.00;99588.96;109690;1251;58947;-78
2023/04/04 00:17:36;;;;;;;10.00;7.20;;;;;;;0.15;100.00;99588.44;109717;1249;58936;-79
2023/04/04 00:20:03;;;;;;;12.30;6.90;;;;;;;0.13;100.00;99588.64;109680;1250;64790;-78
2023/04/04 00:22:30;;;;;;;14.10;7.90;;;;;;;0.11;100.00;99585.00;109356;1251;60113;-79
2023/04/04 00:24:56;;;;;;;11.20;7.70;;;;;;;0.10;100.00;99585.71;109679;1251;62818;-79
2023/04/04 00:27:23;;;;;;;11.60;7.10;;;;;;;0.07;100.00;99585.05;108933;1250;1002160;-78
2023/04/04 00:29:49;;;;;;;10.80;7.00;;;;;;;0.05;100.00;99583.34;108924;1251;1003008;-79
2023/04/04 00:32:16;;;;;;;14.20;7.80;;;;;;;0.04;100.00;99586.84;109725;1251;59006;-78
2023/04/04 00:34:42;;;;;;;11.60;7.40;;;;;;;0.00;100.00;99589.33;109690;1253;59004;-78
2023/04/04 00:37:11;;;;;;;11.80;6.80;;;;;;;-0.04;100.00;99583.64;109707;1250;58980;-79
2023/04/04 00:39:37;;;;;;;13.70;7.80;;;;;;;-0.08;100.00;99583.71;109656;1251;59027;-79
2023/04/04 00:42:05;;;;;;;12.90;7.30;;;;;;;-0.12;100.00;99581.66;109417;1250;59664;-78
2023/04/04 00:44:31;;;;;;;11.10;7.30;;;;;;;-0.15;100.00;99588.16;109718;1250;66082;-79
2023/04/04 00:46:58;;;;;;;11.70;7.40;;;;;;;-0.18;100.00;99586.83;109709;1249;60122;-79
2023/04/04 00:49:24;;;;;;;12.10;7.10;;;;;;;-0.23;100.00;99586.19;109661;1251;62753;-79
2023/04/04 00:51:51;;;;;;;11.50;7.80;;;;;;;-0.27;100.00;99587.98;109655;1249;59028;-80
2023/04/04 00:54:18;;;;;;;13.20;6.80;;;;;;;-0.31;100.00;99590.65;109680;1251;59043;-78
2023/04/04 00:56:45;;;;;;;11.30;7.20;;;;;;;-0.36;100.00;99593.52;109715;1251;64759;-78
2023/04/04 00:59:12;;;;;;;14.70;7.60;;;;;;;-0.41;100.00;99596.20;109715;1250;60174;-76
2023/04/04 01:01:38;;;;;;;15.50;7.70;;;;;;;-0.45;100.00;99596.95;109666;1250;63105;-78
2023/04/04 01:04:05;;;;;;;12.60;7.70;;;;;;;-0.49;100.00;99594.38;109679;1253;59006;-78
2023/04/04 01:06:31;;;;;;;15.30;7.50;;;;;;;-0.53;100.00;99597.58;109709;1250;59340;-78
2023/04/04 01:08:58;;;;;;;10.90;7.10;;;;;;;-0.57;100.00;99600.40;109687;1250;66015;-78
2023/04/04 01:11:27;;;;;;;12.50;7.40;;;;;;;-0.59;100.00;99599.73;109690;1251;60199;-77
2023/04/04 01:13:53;;;;;;;9.80;6.40;;;;;;;-0.63;100.00;99595.59;109541;1249;64062;-78
2023/04/04 01:16:20;;;;;;;10.60;7.40;;;;;;;-0.68;100.00;99595.65;109641;1251;59370;-78
2023/04/04 01:18:49;;;;;;;10.90;7.10;;;;;;;-0.70;100.00;99599.34;109707;1251;59097;-78
2023/04/04 01:21:17;;;;;;;12.80;7.90;;;;;;;-0.74;100.00;99599.04;109666;1251;66069;-77
2023/04/04 01:23:57;;;;;;;14.30;7.40;;;;;;;-0.76;100.00;99598.53;109706;1250;60159;-79
2023/04/04 01:26:25;;;;;;;12.00;7.70;;;;;;;-0.79;100.00;99598.74;109683;1251;64252;-76
2023/04/04 01:28:53;;;;;;;10.40;6.80;;;;;;;-0.81;100.00;99595.63;109686;1249;59337;-78
2023/04/04 01:31:40;;;;;;;12.60;8.10;;;;;;;-0.85;100.00;99598.63;109718;1250;59034;-78
2023/04/04 01:34:31;;;;;;;13.20;7.50;;;;;;;-0.89;100.00;99599.55;109711;1251;66012;-78
2023/04/04 01:37:31;;;;;;;13.80;8.10;;;;;;;-0.94;100.00;99600.83;109406;1255;60068;-78
2023/04/04 01:40:22;;;;;;;14.80;9.20;;;;;;;-0.96;100.00;99605.39;109662;1251;64199;-77
2023/04/04 01:42:50;;;;;;;13.20;8.80;;;;;;;-0.99;100.00;99604.54;109666;1251;59004;-78
2023/04/04 01:45:20;;;;;;;14.00;8.20;;;;;;;-1.02;100.00;99609.27;109677;1250;59006;-77
2023/04/04 01:47:46;;;;;;;13.60;9.00;;;;;;;-1.05;100.00;99609.30;109714;1251;65332;-78
2023/04/04 01:50:13;;;;;;;13.20;8.90;;;;;;;-1.08;100.00;99610.22;109676;1251;59205;-79
2023/04/04 01:52:39;;;;;;;14.00;9.70;;;;;;;-1.08;100.00;99610.20;109685;1251;62762;-78
2023/04/04 01:55:07;;;;;;;14.30;8.80;;;;;;;-1.07;100.00;99609.69;109683;1249;58970;-78
2023/04/04 01:57:33;;;;;;;12.20;8.00;;;;;;;-1.08;100.00;99611.26;109461;1251;58992;-77
2023/04/04 02:00:00;;;;;;;12.90;7.70;;;;;;;-1.08;100.00;99611.25;109720;1250;59535;-78
2023/04/04 02:02:26;;;;;;;12.90;8.10;;;;;;;-1.08;100.00;99612.12;109711;1251;59503;-78
2023/04/04 02:04:54;;;;;;;13.50;8.70;;;;;;;-1.10;100.00;99612.50;109689;1251;64108;-78
2023/04/04 02:07:20;;;;;;;10.80;8.70;;;;;;;-1.11;100.00;99614.95;109620;1251;59212;-78
2023/04/04 02:09:47;;;;;;;13.00;8.60;;;;;;;-1.11;100.00;99617.23;109377;1257;58893;-79
2023/04/04 02:12:13;;;;;;;11.40;7.80;;;;;;;-1.11;100.00;99612.16;109767;1250;58958;-79
2023/04/04 02:14:40;;;;;;;15.20;8.50;;;;;;;-1.11;100.00;99606.05;109772;1250;58928;-78
2023/04/04 02:17:06;;;;;;;12.30;8.40;;;;;;;-1.11;100.00;99611.99;109677;1250;59481;-79
2023/04/04 02:19:32;;;;;;;13.50;8.00;;;;;;;-1.13;100.00;99610.44;109682;1250;59029;-78
2023/04/04 02:21:59;;;;;;;15.00;9.30;;;;;;;-1.15;100.00;99611.86;109666;1253;59067;-78
2023/04/04 02:24:26;;;;;;;12.30;7.60;;;;;;;-1.18;100.00;99610.31;109669;1251;64959;-78
2023/04/04 02:26:52;;;;;;;10.60;7.80;;;;;;;-1.20;100.00;99613.47;109699;1251;58973;-77
2023/04/04 02:29:19;;;;;;;16.50;8.10;;;;;;;-1.24;100.00;99612.63;109658;1250;62891;-78
2023/04/04 02:31:45;;;;;;;14.10;8.30;;;;;;;-1.28;100.00;99607.61;109668;1251;59247;-77
2023/04/04 02:34:12;;;;;;;14.10;8.20;;;;;;;-1.30;100.00;99608.50;109685;1253;58839;-79
2023/04/04 02:36:39;;;;;;;11.30;7.30;;;;;;;-1.31;100.00;99607.47;109421;1251;64790;-78
2023/04/04 02:39:05;;;;;;;11.60;7.90;;;;;;;-1.33;100.00;99606.95;109711;1251;58917;-78
2023/04/04 02:41:31;;;;;;;13.20;8.00;;;;;;;-1.35;100.00;99605.77;109656;1250;58994;-79
2023/04/04 02:43:58;;;;;;;11.10;6.60;;;;;;;-1.36;100.00;99607.34;109666;1250;58916;-78
2023/04/04 02:46:24;;;;;;;15.50;8.00;;;;;;;-1.38;100.00;99615.20;109777;1249;58883;-78
2023/04/04 02:48:51;;;;;;;12.20;7.20;;;;;;;-1.39;100.00;99613.81;109746;1251;59557;-77
2023/04/04 02:51:18;;;;;;;10.90;6.80;;;;;;;-1.40;100.00;99610.86;109547;1253;60077;-78
2023/04/04 02:53:45;;;;;;;13.10;6.80;;;;;;;-1.42;100.00;99612.45;109668;1251;64109;-79
2023/04/04 02:56:13;;;;;;;12.00;6.90;;;;;;;-1.45;100.00;99611.95;109717;1250;59021;-79
2023/04/04 02:58:39;;;;;;;18.60;8.00;;;;;;;-1.48;100.00;99614.40;109749;1251;59003;-78
2023/04/04 03:01:06;;;;;;;12.90;7.50;;;;;;;-1.50;100.00;99612.69;109689;1250;66060;-79
2023/04/04 03:03:32;;;;;;;9.90;7.50;;;;;;;-1.53;100.00;99612.54;109712;1251;59332;-79
2023/04/04 03:05:59;;;;;;;10.90;6.60;;;;;;;-1.55;100.00;99609.42;109391;1251;59166;-79
2023/04/04 03:08:26;;;;;;;10.30;6.40;;;;;;;-1.56;100.00;99606.11;109640;1251;59289;-79
2023/04/04 03:10:53;;;;;;;11.40;6.90;;;;;;;-1.57;100.00;99605.25;109715;1250;59226;-80
2023/04/04 03:13:19;;;;;;;11.30;6.90;;;;;;;-1.58;100.00;99608.56;109720;1251;66382;-79
2023/04/04 03:15:46;;;;;;;11.10;6.40;;;;;;;-1.59;100.00;99607.17;109661;1253;59000;-79
2023/04/04 03:18:13;;;;;;;9.20;6.60;;;;;;;-1.58;100.00;99605.77;109689;1251;62880;-79
2023/04/04 03:20:39;;;;;;;12.40;6.60;;;;;;;-1.58;100.00;99604.73;109674;1250;59011;-79
2023/04/04 03:23:05;;;;;;;10.60;6.80;;;;;;;-1.57;100.00;99607.34;109689;1250;59062;-78
2023/04/04 03:25:32;;;;;;;10.40;7.40;;;;;;;-1.57;100.00;99610.31;109710;1253;59169;-78
2023/04/04 03:28:07;;;;;;;11.70;6.50;;;;;;;-1.56;100.00;99605.23;109779;1250;58929;-78
2023/04/04 03:30:33;;;;;;;11.80;8.10;;;;;;;-1.56;100.00;99608.38;109782;1250;62899;-77
2023/04/04 03:33:07;;;;;;;10.60;7.20;;;;;;;-1.54;100.00;99609.23;109709;1250;59020;-79
2023/04/04 03:35:39;;;;;;;12.90;8.10;;;;;;;-1.52;100.00;99605.73;108661;1250;1002890;-79
2023/04/04 03:38:06;;;;;;;10.80;7.70;;;;;;;-1.51;100.00;99607.81;109767;1251;65124;-79
2023/04/04 03:40:32;;;;;;;11.30;7.40;;;;;;;-1.49;100.00;99610.07;109687;1251;60150;-79
2023/04/04 03:43:01;;;;;;;10.10;7.10;;;;;;;-1.47;100.00;99609.17;109684;1251;62755;-79
2023/04/04 03:45:31;;;;;;;15.10;7.20;;;;;;;-1.47;100.00;99602.91;109689;1250;59039;-79
2023/04/04 03:47:57;;;;;;;12.00;7.20;;;;;;;-1.47;100.00;99600.47;109353;1251;59079;-77
2023/04/04 03:50:24;;;;;;;12.10;7.70;;;;;;;-1.47;100.00;99598.02;109713;1250;59111;-79
2023/04/04 03:52:50;;;;;;;15.80;7.80;;;;;;;-1.46;100.00;99597.49;109723;1250;59082;-79
2023/04/04 03:55:17;;;;;;;12.90;8.00;;;;;;;-1.46;100.00;99600.11;109672;1253;59105;-78
2023/04/04 03:57:43;;;;;;;9.80;7.00;;;;;;;-1.46;100.00;99596.98;109673;1250;58851;-78
2023/04/04 04:00:11;;;;;;;11.60;7.10;;;;;;;-1.46;100.00;99593.13;109695;1251;58925;-79
2023/04/04 04:02:37;;;;;;;11.60;8.20;;;;;;;-1.45;100.00;99592.77;109660;1251;64743;-79
2023/04/04 04:05:04;;;;;;;10.80;7.30;;;;;;;-1.46;100.00;99591.39;109742;1251;59035;-79
2023/04/04 04:07:30;;;;;;;11.50;8.40;;;;;;;-1.46;100.00;99592.25;109700;1251;64004;-78
2023/04/04 04:09:57;;;;;;;13.50;8.20;;;;;;;-1.46;100.00;99591.05;109671;1250;58947;-79
2023/04/04 04:12:25;;;;;;;9.30;7.10;;;;;;;-1.46;100.00;99589.66;109798;1249;59126;-79
2023/04/04 04:14:51;;;;;;;12.50;9.10;;;;;;;-1.47;100.00;99587.75;109686;1249;66026;-78
2023/04/04 04:17:18;;;;;;;12.10;8.00;;;;;;;-1.47;100.00;99590.18;109721;1251;59105;-78
2023/04/04 04:19:44;;;;;;;11.90;8.00;;;;;;;-1.48;100.00;99593.14;109700;1251;64050;-79
2023/04/04 04:22:11;;;;;;;12.50;8.90;;;;;;;-1.47;100.00;99592.29;109716;1251;59024;-78
2023/04/04 04:24:37;;;;;;;12.50;7.50;;;;;;;-1.47;100.00;99592.83;109731;1249;58978;-79
2023/04/04 04:27:04;;;;;;;11.90;8.70;;;;;;;-1.46;100.00;99592.63;109449;1250;59305;-78
2023/04/04 04:29:31;;;;;;;13.70;8.30;;;;;;;-1.46;100.00;99589.30;109779;1250;59007;-79
2023/04/04 04:31:58;;;;;;;10.80;8.30;;;;;;;-1.46;100.00;99591.38;109687;1251;64021;-79
2023/04/04 04:34:25;;;;;;;15.20;8.50;;;;;;;-1.45;100.00;99592.25;108121;1250;1003076;-78
2023/04/04 04:36:52;;;;;;;14.30;8.70;;;;;;;-1.44;100.00;99589.45;109713;1249;59043;-79
2023/04/04 04:39:19;;;;;;;10.40;8.20;;;;;;;-1.43;100.00;99586.83;109699;1250;66078;-78
2023/04/04 04:41:45;;;;;;;10.10;7.80;;;;;;;-1.42;100.00;99583.88;109713;1249;59005;-76
2023/04/04 04:44:12;;;;;;;15.40;8.40;;;;;;;-1.40;100.00;99585.41;109684;1250;62839;-79
2023/04/04 04:46:38;;;;;;;16.10;9.70;;;;;;;-1.38;100.00;99584.70;109673;1250;59270;-78
2023/04/04 04:49:05;;;;;;;18.10;10.60;;;;;;;-1.36;100.00;99583.28;109726;1250;58803;-79
2023/04/04 04:51:31;;;;;;;14.60;9.00;;;;;;;-1.33;100.00;99587.61;109736;1249;59094;-79
2023/04/04 04:53:58;;;;;;;14.00;9.10;;;;;;;-1.31;100.00;99588.98;109733;1250;59204;-79
2023/04/04 04:56:24;;;;;;;15.30;9.30;;;;;;;-1.29;100.00;99590.54;109544;1249;58987;-81
2023/04/04 04:58:51;;;;;;;16.50;9.20;;;;;;;-1.27;100.00;99587.03;109709;1251;58977;-80
2023/04/04 05:01:17;;;;;;;15.40;9.50;;;;;;;-1.24;100.00;99586.48;109723;1249;59038;-79
2023/04/04 05:03:44;;;;;;;16.90;11.30;;;;;;;-1.21;100.00;99590.30;109759;1250;59063;-79
2023/04/04 05:06:10;;;;;;;18.80;12.00;;;;;;;-1.17;100.00;99592.34;109738;1249;59197;-79
2023/04/04 05:08:36;;;;;;;14.40;9.90;;;;;;;-1.12;100.00;99595.77;109653;1250;59040;-79
2023/04/04 05:11:03;;;;;;;17.90;10.50;;;;;;;-1.06;100.00;99595.55;109739;1250;58966;-78
2023/04/04 05:13:30;;;;;;;13.50;9.90;;;;;;;-1.01;100.00;99594.63;109769;1250;59034;-79
2023/04/04 05:15:57;;;;;;;16.70;9.20;;;;;;;-0.95;100.00;99592.47;108957;1250;1002136;-78
2023/04/04 05:18:24;;;;;;;15.30;10.70;;;;;;;-0.91;100.00;99588.74;109741;1250;59067;-78
2023/04/04 05:20:54;;;;;;;18.90;10.00;;;;;;;-0.85;100.00;99587.83;109394;1251;62819;-78
2023/04/04 05:23:21;;;;;;;14.30;9.10;;;;;;;-0.82;100.00;99588.84;109733;1249;59006;-79
2023/04/04 05:25:50;;;;;;;12.20;8.40;;;;;;;-0.80;100.00;99591.08;109404;1250;59124;-77
2023/04/04 05:28:16;;;;;;;13.60;9.50;;;;;;;-0.74;100.00;99595.20;109727;1250;66159;-78
2023/04/04 05:30:43;;;;;;;14.00;9.00;;;;;;;-0.66;100.00;99593.20;109718;1250;59057;-78
2023/04/04 05:33:10;;;;;;;14.00;8.60;;;;;;;-0.61;100.00;99594.00;109708;1249;64024;-78
2023/04/04 05:35:36;;;;;;;17.20;9.90;;;;;;;-0.57;100.00;99594.83;109662;1250;59025;-78
2023/04/04 05:38:03;;;;;;;17.70;9.70;;;;;;;-0.51;100.00;99597.20;109552;1249;59157;-77
2023/04/04 05:40:29;;;;;;;18.60;11.80;;;;;;;-0.46;100.00;99601.48;109720;1249;66030;-79
2023/04/04 05:42:57;;;;;;;15.40;10.70;;;;;;;-0.39;100.00;99602.97;109698;1249;58956;-77
2023/04/04 05:45:24;;;;;;;13.50;9.40;;;;;;;-0.34;100.00;99606.57;109682;1249;64189;-78
2023/04/04 05:47:51;;;;;;;14.90;9.60;;;;;;;-0.27;100.00;99607.19;109714;1249;59306;-79
2023/04/04 05:50:17;;;;;;;17.00;10.40;;;;;;;-0.22;100.00;99609.73;109670;1249;58875;-79
2023/04/04 05:52:45;;;;;;;16.10;10.60;;;;;;;-0.18;100.00;99609.52;109695;1250;59217;-78
2023/04/04 05:55:12;;;;;;;13.70;9.00;;;;;;;-0.12;100.00;99606.98;109745;1250;60125;-79
2023/04/04 05:57:49;;;;;;;14.90;8.90;;;;;;;-0.07;100.00;99609.18;109714;1249;63474;-79
2023/04/04 06:00:19;;;;;;;12.80;9.10;;;;;;;-0.02;100.00;99607.55;109197;1249;59249;-81
2023/04/04 06:02:45;;;;;;;16.50;8.40;;;;;;;-0.03;100.00;99604.77;109694;1250;59165;-78
2023/04/04 06:05:12;;;;;;;14.40;8.00;;;;;;;-0.07;100.00;99610.58;109397;1251;66062;-79
2023/04/04 06:07:38;;;;;;;13.70;8.40;;;;;;;-0.06;100.00;99611.09;109690;1249;59064;-78
2023/04/04 06:10:06;;;;;;;13.30;8.30;;;;;;;-0.02;100.00;99613.83;109677;1250;64075;-78
2023/04/04 06:12:34;;;;;;;18.80;9.80;;;;;;;0.06;100.00;99607.42;109673;1249;59055;-79
2023/04/04 06:15:00;;;;;;;15.90;10.00;;;;;;;0.16;100.00;99610.08;109692;1249;59362;-79
2023/04/04 06:17:27;;;;;;;12.30;7.40;;;;;;;0.27;100.00;99616.73;109686;1250;66055;-78
2023/04/04 06:19:54;;;;;;;13.80;8.10;;;;;;;0.27;99.82;99616.21;109727;1250;59139;-79
2023/04/04 06:22:20;;;;;;;13.40;8.10;;;;;;;0.33;99.68;99618.92;109414;1250;63854;-79
2023/04/04 06:24:47;;;;;;;12.60;8.40;;;;;;;0.41;98.12;99613.19;109361;1250;59091;-78
2023/04/04 06:27:13;;;;;;;15.60;8.50;;;;;;;0.47;98.14;99612.93;109754;1249;59434;-80
2023/04/04 06:29:40;;;;;;;11.80;8.70;;;;;;;0.54;98.41;99615.23;109668;1250;66028;-79
2023/04/04 06:32:12;;;;;;;15.00;9.20;;;;;;;0.65;97.64;99612.98;108962;1249;1002888;-79
2023/04/04 06:34:42;;;;;;;18.60;10.70;;;;;;;0.77;97.03;99613.83;109436;1249;63085;-79
2023/04/04 06:37:08;;;;;;;16.00;9.80;;;;;;;0.85;96.31;99614.20;109682;1249;59064;-79
2023/04/04 06:39:35;;;;;;;16.60;10.20;;;;;;;0.84;95.68;99609.67;109423;1249;59035;-80
2023/04/04 06:42:02;;;;;;;14.60;8.40;;;;;;;0.86;95.19;99611.21;109415;1249;64911;-79
2023/04/04 06:44:28;;;;;;;15.40;9.80;;;;;;;0.96;94.61;99608.94;109575;1250;60154;-80
2023/04/04 06:46:54;;;;;;;13.10;8.40;;;;;;;1.06;93.93;99611.20;109701;1250;58951;-77
2023/04/04 06:49:21;;;;;;;15.60;8.60;;;;;;;1.13;92.81;99610.91;109671;1250;58999;-78
2023/04/04 06:51:49;;;;;;;17.10;9.40;;;;;;;1.27;90.82;99608.20;109718;1250;58986;-78
2023/04/04 06:54:16;;;;;;;14.20;8.80;;;;;;;1.37;88.78;99609.05;109727;1250;66003;-78
2023/04/04 06:56:42;;;;;;;15.60;9.50;;;;;;;1.41;88.40;99610.55;109762;1249;60120;-78
2023/04/04 06:59:10;;;;;;;12.80;8.80;;;;;;;1.52;88.48;99603.14;109375;1250;62838;-78
2023/04/04 07:01:37;;;;;;;14.30;8.40;;;;;;;1.72;88.61;99597.48;109696;1250;58926;-78
2023/04/04 07:04:03;;;;;;;14.70;8.00;;;;;;;1.82;87.32;99597.95;109751;1250;59181;-78
2023/04/04 07:06:30;;;;;;;10.40;7.20;;;;;;;1.73;86.58;99596.21;109729;1250;59157;-79
2023/04/04 07:08:56;;;;;;;10.70;7.60;;;;;;;1.72;84.90;99596.24;109734;1250;59050;-78
2023/04/04 07:11:23;;;;;;;10.60;7.40;;;;;;;1.66;83.55;99592.69;109686;1249;59061;-78
2023/04/04 07:13:49;;;;;;;14.30;8.40;;;;;;;1.55;83.28;99590.65;109708;1249;59028;-79
2023/04/04 07:16:16;;;;;;;10.70;7.50;;;;;;;1.44;82.94;99591.56;109710;1250;59012;-78
2023/04/04 07:18:43;;;;;;;14.10;7.30;;;;;;;1.37;83.26;99595.57;109736;1250;59096;-79
2023/04/04 07:21:09;;;;;;;11.80;6.60;;;;;;;1.34;83.32;99599.29;109719;1250;59070;-78
2023/04/04 07:23:36;;;;;;;10.30;6.90;;;;;;;1.35;83.59;99597.00;109743;1250;59122;-78
2023/04/04 07:26:02;;;;;;;12.00;8.00;;;;;;;1.39;83.52;99597.44;109746;1250;58995;-79
2023/04/04 07:28:29;;;;;;;10.60;7.40;;;;;;;1.46;82.69;99594.50;109505;1250;59136;-78
2023/04/04 07:31:00;;;;;;;9.30;6.10;;;;;;;1.47;82.00;99593.95;109685;1250;66029;-78
2023/04/04 07:33:27;;;;;;;7.70;4.90;;;;;;;1.45;81.20;99595.55;109475;1250;60144;-79
2023/04/04 07:35:53;;;;;;;10.10;6.20;;;;;;;1.42;80.09;99598.78;109677;1249;64079;-79
2023/04/04 07:38:20;;;;;;;9.10;5.90;;;;;;;1.40;80.20;99595.16;109455;1251;59052;-78
2023/04/04 07:40:48;;;;;;;8.90;5.60;;;;;;;1.41;79.95;99598.63;109707;1249;58993;-79
2023/04/04 07:43:15;;;;;;;7.50;5.30;;;;;;;1.43;79.90;99600.02;109738;1250;66043;-78
2023/04/04 07:45:41;;;;;;;9.40;5.90;;;;;;;1.48;79.98;99596.73;109777;1250;60199;-79
2023/04/04 07:48:08;;;;;;;7.60;5.20;;;;;;;1.57;79.94;99596.39;109704;1250;59190;-79
2023/04/04 07:50:34;;;;;;;9.40;5.80;;;;;;;1.64;79.48;99591.31;109736;1250;58978;-79
2023/04/04 07:53:01;;;;;;;8.60;5.60;;;;;;;1.74;79.94;99593.22;109761;1249;59008;-79
2023/04/04 07:55:27;;;;;;;8.50;5.00;;;;;;;1.84;78.58;99594.77;109727;1250;59493;-79
2023/04/04 07:57:54;;;;;;;11.90;5.50;;;;;;;1.92;79.04;99594.05;109754;1250;59025;-79
2023/04/04 08:00:21;;;;;;;8.40;5.80;;;;;;;2.03;78.92;99588.02;109707;1250;59059;-80
2023/04/04 08:02:52;;;;;;;11.00;6.80;;;;;;;2.13;78.08;99588.14;109585;1249;59057;-80
2023/04/04 08:05:19;;;;;;;14.50;8.10;;;;;;;2.17;77.91;99585.96;109476;1249;59052;-79
2023/04/04 08:07:46;;;;;;;11.90;8.00;;;;;;;2.25;78.25;99585.25;109401;1249;66141;-79
2023/04/04 08:10:16;;;;;;;13.20;7.60;;;;;;;2.35;77.86;99581.33;109593;1250;59949;-78
2023/04/04 08:12:43;;;;;;;10.50;6.60;;;;;;;2.49;78.42;99578.17;109710;1250;64104;-79
2023/04/04 08:15:11;;;;;;;8.90;5.90;;;;;;;2.67;76.41;99580.88;109711;1250;58969;-79
2023/04/04 08:17:37;;;;;;;12.00;6.30;;;;;;;2.74;75.83;99581.73;109756;1250;59342;-79
2023/04/04 08:20:05;;;;;;;10.00;6.50;;;;;;;2.77;75.87;99576.23;109687;1250;64815;-79
2023/04/04 08:22:32;;;;;;;8.90;6.30;;;;;;;2.90;75.10;99571.33;109771;1250;59034;-80
2023/04/04 08:24:59;;;;;;;9.40;6.70;;;;;;;3.03;74.61;99578.69;109716;1249;64045;-80
2023/04/04 08:27:26;;;;;;;12.80;6.90;;;;;;;3.19;73.70;99569.30;109698;1249;59035;-78
2023/04/04 08:29:52;;;;;;;9.70;5.80;;;;;;;3.38;72.92;99574.59;109713;1249;59053;-79
2023/04/04 08:32:19;;;;;;;9.80;5.70;;;;;;;3.42;71.83;99577.46;109441;1250;64897;-79
2023/04/04 08:34:45;;;;;;;9.20;6.60;;;;;;;3.31;70.48;99573.38;109716;1250;60174;-78
2023/04/04 08:37:12;;;;;;;7.30;5.50;;;;;;;3.25;70.30;99567.40;109728;1250;63086;-79
2023/04/04 08:39:38;;;;;;;10.50;5.80;;;;;;;3.48;70.35;99564.45;109395;1249;59018;-79
2023/04/04 08:42:06;;;;;;;8.50;5.40;;;;;;;3.60;66.06;99561.48;109706;1250;59265;-79
2023/04/04 08:44:34;;;;;;;8.90;5.40;;;;;;;3.71;63.18;99558.52;109727;1250;65837;-78
2023/04/04 08:47:04;;;;;;;8.60;6.70;;;;;;;3.97;63.24;99552.09;109760;1250;59233;-79
2023/04/04 08:49:36;;;;;;;12.70;8.50;;;;;;;4.01;62.10;99549.34;109653;1250;63397;-78
2023/04/04 08:52:05;;;;;;;15.10;8.60;;;;;;;3.85;62.77;99553.02;109675;1250;59072;-79
2023/04/04 08:54:33;;;;;;;9.40;6.70;;;;;;;3.91;63.71;99550.54;109681;1250;59066;-80
2023/04/04 08:57:00;;;;;;;9.40;6.50;;;;;;;4.09;62.05;99549.08;109703;1249;66105;-79
2023/04/04 08:59:27;;;;;;;9.00;7.00;;;;;;;4.17;61.55;99553.73;109709;1250;58990;-79
2023/04/04 09:02:03;;;;;;;10.20;6.80;;;;;;;4.09;61.22;99548.92;109680;1250;62918;-79
2023/04/04 09:04:30;;;;;;;10.30;7.10;;;;;;;4.06;61.89;99549.19;109507;1249;59196;-79
2023/04/04 09:06:59;;;;;;;10.20;6.30;;;;;;;4.20;61.46;99550.69;109377;1250;59000;-76
2023/04/04 09:09:26;;;;;;;10.00;5.50;;;;;;;4.29;60.75;99548.98;109682;1250;64825;-78
2023/04/04 09:11:53;;;;;;;5.60;4.70;;;;;;;4.47;60.38;99543.98;109728;1250;59060;-77
2023/04/04 09:14:20;;;;;;;6.30;4.50;;;;;;;4.47;58.11;99544.67;109690;1249;64026;-79
2023/04/04 09:16:47;;;;;;;7.30;5.00;;;;;;;4.41;57.42;99551.95;108961;1249;1002463;-78
2023/04/04 09:19:13;;;;;;;9.40;6.10;;;;;;;4.38;58.21;99548.50;109694;1249;58831;-78
2023/04/04 09:21:45;;;;;;;8.60;5.60;;;;;;;4.45;58.37;99551.46;109424;1251;59084;-77
2023/04/04 09:24:13;;;;;;;8.10;4.40;;;;;;;4.55;58.51;99551.82;109551;1250;149546;-77
2023/04/04 09:26:49;;;;;;;7.80;4.80;;;;;;;4.73;58.46;99544.15;109705;1249;62849;-78
2023/04/04 09:29:20;;;;;;;6.90;4.80;;;;;;;4.90;57.73;99544.62;109687;1249;58961;-80
2023/04/04 09:31:48;;;;;;;7.70;4.90;;;;;;;4.99;57.21;99541.70;109718;1249;58983;-79
2023/04/04 09:34:17;;;;;;;7.20;4.70;;;;;;;5.12;56.67;99549.16;109715;1249;66058;-79
2023/04/04 09:36:44;;;;;;;6.90;5.40;;;;;;;5.23;56.18;99545.94;109681;1250;69812;-78
2023/04/04 09:39:12;;;;;;;6.80;4.60;;;;;;;5.27;56.20;99543.84;109712;1250;64052;-79
2023/04/04 09:41:39;;;;;;;8.80;5.20;;;;;;;5.27;55.41;99549.64;109695;1249;58995;-79
2023/04/04 09:44:06;;;;;;;8.70;5.30;;;;;;;5.26;55.22;99546.89;109682;1249;58803;-79
2023/04/04 09:46:36;;;;;;;6.30;4.60;;;;;;;5.18;55.45;99545.23;109722;1250;65921;-79
2023/04/04 09:49:03;;;;;;;6.20;4.50;;;;;;;5.15;55.76;99542.52;109692;1250;59334;-78
2023/04/04 09:51:37;;;;;;;5.80;4.50;;;;;;;5.10;55.09;99543.05;109679;1249;62867;-78
2023/04/04 09:54:05;;;;;;;6.30;4.20;;;;;;;5.01;55.13;99540.23;109677;1250;59005;-77
2023/04/04 09:56:33;;;;;;;7.50;4.60;;;;;;;5.18;55.49;99537.48;109698;1250;58921;-78
2023/04/04 09:59:01;;;;;;;7.80;4.30;;;;;;;5.37;54.54;99528.69;109684;1250;65985;-77
2023/04/04 10:01:27;;;;;;;6.70;4.30;;;;;;;5.38;54.62;99528.30;109685;1250;58937;-79
2023/04/04 10:03:54;;;;;;;3.90;3.50;;;;;;;5.39;54.13;99536.00;109649;1249;62808;-79
2023/04/04 10:06:22;;;;;;;5.70;3.50;;;;;;;5.37;54.00;99532.76;109653;1249;58892;-79
2023/04/04 10:08:48;;;;;;;6.00;3.40;;;;;;;5.23;54.20;99533.41;109713;1250;58818;-78
2023/04/04 10:11:29;;;;;;;4.90;3.80;;;;;;;5.06;53.67;99531.59;109725;1249;66087;-78
2023/04/04 10:13:56;;;;;;;4.70;3.60;;;;;;;4.78;53.29;99541.89;109720;1249;60228;-78
2023/04/04 10:16:24;;;;;;;6.40;4.00;;;;;;;4.65;54.03;99532.83;109686;1250;62815;-78
2023/04/04 10:18:52;;;;;;;4.30;3.80;;;;;;;4.73;54.58;99533.78;109650;1250;58998;-80
2023/04/04 10:21:18;;;;;;;4.50;3.10;;;;;;;4.91;53.69;99533.48;109675;1250;59005;-79
2023/04/04 10:23:47;;;;;;;5.80;3.10;;;;;;;5.02;53.51;99525.01;109657;1250;64834;-78
2023/04/04 10:26:14;;;;;;;5.70;3.30;;;;;;;5.21;53.58;99516.23;109686;1250;60124;-79
2023/04/04 10:28:41;;;;;;;5.90;3.80;;;;;;;5.29;52.51;99519.80;109673;1250;64082;-80
2023/04/04 10:31:22;;;;;;;6.00;3.60;;;;;;;5.16;52.64;99521.15;109674;1250;59012;-78
2023/04/04 10:34:11;;;;;;;6.20;3.70;;;;;;;5.09;53.49;99518.23;109716;1250;58830;-78
2023/04/04 10:36:44;;;;;;;4.80;3.60;;;;;;;5.01;52.71;99518.55;109692;1250;65250;-79
2023/04/04 10:39:26;;;;;;;5.60;4.00;;;;;;;4.92;52.43;99522.91;109694;1251;60691;-78
2023/04/04 10:41:55;;;;;;;5.10;3.90;;;;;;;5.05;52.25;99516.45;109537;1250;62826;-79
2023/04/04 10:44:28;;;;;;;5.40;4.20;;;;;;;5.44;52.75;99515.02;109674;1249;59054;-78
2023/04/04 10:46:57;;;;;;;7.00;3.60;;;;;;;5.65;51.93;99511.76;109683;1249;59406;-78
2023/04/04 10:49:25;;;;;;;5.10;3.50;;;;;;;5.63;51.10;99512.35;109684;1250;64765;-78
2023/04/04 10:51:53;;;;;;;5.20;3.30;;;;;;;5.55;50.48;99510.02;109716;1250;60156;-79
2023/04/04 10:54:20;;;;;;;5.10;3.70;;;;;;;5.48;50.22;99504.66;109697;1250;62923;-79
2023/04/04 10:56:47;;;;;;;7.20;3.70;;;;;;;5.50;50.87;99505.12;109686;1249;59042;-78
2023/04/04 10:59:16;;;;;;;4.50;3.30;;;;;;;5.60;50.81;99501.00;109709;1249;59330;-79
2023/04/04 11:01:47;;;;;;;5.50;4.10;;;;;;;5.53;49.87;99501.27;109735;1250;64874;-80
2023/04/04 11:04:18;;;;;;;5.30;3.50;;;;;;;5.38;50.09;99498.33;109428;1249;59391;-78
2023/04/04 11:07:08;;;;;;;6.40;3.20;;;;;;;5.24;49.64;99497.77;109707;1250;64007;-79
2023/04/04 11:09:54;;;;;;;5.60;3.10;;;;;;;5.09;49.48;99493.93;109688;1250;59029;-78
2023/04/04 11:12:29;;;;;;;5.30;3.80;;;;;;;5.26;50.18;99494.75;109735;1249;59031;-78
2023/04/04 11:15:01;;;;;;;5.10;3.30;;;;;;;5.48;49.49;99492.16;109696;1249;66037;-79
2023/04/04 11:17:57;;;;;;;5.60;4.30;;;;;;;5.66;49.51;99492.16;109728;1250;60203;-78
2023/04/04 11:20:34;;;;;;;7.00;3.80;;;;;;;5.78;49.25;99499.10;109687;1249;62826;-78
2023/04/04 11:23:13;;;;;;;7.10;3.80;;;;;;;5.79;49.66;99491.48;109232;1250;59052;-78